sensor_id;sensor_type;location;lat;lon;timestamp;P1;durP1;ratioP1;P2;durP2;ratioP2
41468;SDS011;27206;47.032;15.484;2023-04-25T00:01:45;3.72;;;1.60;;
41468;SDS011;27206;47.032;15.484;2023-04-25T00:04:11;4.05;;;1.80;;
41468;SDS011;27206;47.032;15.484;2023-04-25T00:06:36;6.57;;;1.90;;
41468;SDS011;27206;47.032;15.484;2023-04-25T00:09:05;3.03;;;1.42;;
41468;SDS011;27206;47.032;15.484;2023-04-25T00:11:36;2.28;;;1.50;;
41468;SDS011;27206;47.032;15.484;2023-04-25T00:14:02;4.13;;;1.40;;
41468;SDS011;27206;47.032;15.484;2023-04-25T00:16:28;2.97;;;1.60;;
41468;SDS011;27206;47.032;15.484;2023-04-25T00:18:58;4.68;;;1.48;;
41468;SDS011;27206;47.032;15.484;2023-04-25T00:21:23;3.55;;;1.80;;
41468;SDS011;27206;47.032;15.484;2023-04-25T00:23:49;3.22;;;1.52;;
41468;SDS011;27206;47.032;15.484;2023-04-25T00:26:15;3.63;;;1.90;;
41468;SDS011;27206;47.032;15.484;2023-04-25T00:28:40;2.35;;;1.30;;
41468;SDS011;27206;47.032;15.484;2023-04-25T00:31:06;2.42;;;1.40;;
41468;SDS011;27206;47.032;15.484;2023-04-25T00:33:32;3.58;;;1.58;;
41468;SDS011;27206;47.032;15.484;2023-04-25T00:35:57;3.33;;;1.35;;
41468;SDS011;27206;47.032;15.484;2023-04-25T00:38:23;3.25;;;1.70;;
41468;SDS011;27206;47.032;15.484;2023-04-25T00:40:49;2.55;;;1.42;;
41468;SDS011;27206;47.032;15.484;2023-04-25T00:43:14;2.45;;;1.35;;
41468;SDS011;27206;47.032;15.484;2023-04-25T00:45:40;3.15;;;1.60;;
41468;SDS011;27206;47.032;15.484;2023-04-25T00:48:07;5.22;;;2.00;;
41468;SDS011;27206;47.032;15.484;2023-04-25T00:50:33;3.47;;;1.83;;
41468;SDS011;27206;47.032;15.484;2023-04-25T00:53:00;3.97;;;1.90;;
41468;SDS011;27206;47.032;15.484;2023-04-25T00:55:26;3.90;;;1.98;;
41468;SDS011;27206;47.032;15.484;2023-04-25T00:57:52;3.08;;;1.90;;
41468;SDS011;27206;47.032;15.484;2023-04-25T01:00:18;4.03;;;1.90;;
41468;SDS011;27206;47.032;15.484;2023-04-25T01:02:44;3.85;;;1.90;;
41468;SDS011;27206;47.032;15.484;2023-04-25T01:05:11;3.55;;;1.98;;
41468;SDS011;27206;47.032;15.484;2023-04-25T01:07:37;4.32;;;1.90;;
41468;SDS011;27206;47.032;15.484;2023-04-25T01:10:03;4.20;;;1.85;;
41468;SDS011;27206;47.032;15.484;2023-04-25T01:12:31;4.25;;;1.65;;
41468;SDS011;27206;47.032;15.484;2023-04-25T01:14:56;3.85;;;1.80;;
41468;SDS011;27206;47.032;15.484;2023-04-25T01:17:22;2.78;;;1.85;;
41468;SDS011;27206;47.032;15.484;2023-04-25T01:19:49;3.47;;;1.90;;
41468;SDS011;27206;47.032;15.484;2023-04-25T01:22:15;3.72;;;1.70;;
41468;SDS011;27206;47.032;15.484;2023-04-25T01:24:41;3.35;;;1.63;;
41468;SDS011;27206;47.032;15.484;2023-04-25T01:27:07;2.45;;;1.50;;
41468;SDS011;27206;47.032;15.484;2023-04-25T01:29:34;3.55;;;1.67;;
41468;SDS011;27206;47.032;15.484;2023-04-25T01:32:00;3.63;;;1.60;;
41468;SDS011;27206;47.032;15.484;2023-04-25T01:34:26;3.55;;;1.70;;
41468;SDS011;27206;47.032;15.484;2023-04-25T01:36:52;4.13;;;1.52;;
41468;SDS011;27206;47.032;15.484;2023-04-25T01:39:19;4.32;;;2.10;;
41468;SDS011;27206;47.032;15.484;2023-04-25T01:41:48;3.05;;;1.40;;
41468;SDS011;27206;47.032;15.484;2023-04-25T01:44:14;3.08;;;1.75;;
41468;SDS011;27206;47.032;15.484;2023-04-25T01:46:40;3.60;;;1.50;;
41468;SDS011;27206;47.032;15.484;2023-04-25T01:49:07;6.70;;;2.00;;
41468;SDS011;27206;47.032;15.484;2023-04-25T01:51:33;2.67;;;1.77;;
41468;SDS011;27206;47.032;15.484;2023-04-25T01:54:01;4.10;;;2.00;;
41468;SDS011;27206;47.032;15.484;2023-04-25T01:56:30;3.22;;;1.67;;
41468;SDS011;27206;47.032;15.484;2023-04-25T01:58:57;3.58;;;1.70;;
41468;SDS011;27206;47.032;15.484;2023-04-25T02:01:23;4.40;;;1.92;;
41468;SDS011;27206;47.032;15.484;2023-04-25T02:03:48;4.30;;;1.67;;
41468;SDS011;27206;47.032;15.484;2023-04-25T02:06:14;3.30;;;1.77;;
41468;SDS011;27206;47.032;15.484;2023-04-25T02:08:40;3.83;;;1.92;;
41468;SDS011;27206;47.032;15.484;2023-04-25T02:11:05;3.53;;;1.70;;
41468;SDS011;27206;47.032;15.484;2023-04-25T02:13:31;3.30;;;1.80;;
41468;SDS011;27206;47.032;15.484;2023-04-25T02:15:57;4.00;;;1.85;;
41468;SDS011;27206;47.032;15.484;2023-04-25T02:18:22;3.20;;;1.48;;
41468;SDS011;27206;47.032;15.484;2023-04-25T02:20:48;4.32;;;1.90;;
41468;SDS011;27206;47.032;15.484;2023-04-25T02:23:14;4.57;;;1.70;;
41468;SDS011;27206;47.032;15.484;2023-04-25T02:25:44;4.20;;;1.80;;
41468;SDS011;27206;47.032;15.484;2023-04-25T02:28:09;4.13;;;1.85;;
41468;SDS011;27206;47.032;15.484;2023-04-25T02:30:36;3.00;;;1.52;;
41468;SDS011;27206;47.032;15.484;2023-04-25T02:33:02;5.35;;;1.70;;
41468;SDS011;27206;47.032;15.484;2023-04-25T02:35:28;5.35;;;1.67;;
41468;SDS011;27206;47.032;15.484;2023-04-25T02:37:53;4.25;;;2.05;;
41468;SDS011;27206;47.032;15.484;2023-04-25T02:40:19;4.55;;;1.58;;
41468;SDS011;27206;47.032;15.484;2023-04-25T02:42:45;3.38;;;1.70;;
41468;SDS011;27206;47.032;15.484;2023-04-25T02:45:11;2.45;;;1.55;;
41468;SDS011;27206;47.032;15.484;2023-04-25T02:47:37;3.20;;;1.60;;
41468;SDS011;27206;47.032;15.484;2023-04-25T02:50:02;4.35;;;1.83;;
41468;SDS011;27206;47.032;15.484;2023-04-25T02:52:28;4.40;;;1.70;;
41468;SDS011;27206;47.032;15.484;2023-04-25T02:54:54;4.35;;;1.73;;
41468;SDS011;27206;47.032;15.484;2023-04-25T02:57:20;4.93;;;1.90;;
41468;SDS011;27206;47.032;15.484;2023-04-25T02:59:46;3.13;;;1.52;;
41468;SDS011;27206;47.032;15.484;2023-04-25T03:02:11;5.55;;;1.85;;
41468;SDS011;27206;47.032;15.484;2023-04-25T03:04:37;5.45;;;1.75;;
41468;SDS011;27206;47.032;15.484;2023-04-25T03:07:03;5.22;;;2.10;;
41468;SDS011;27206;47.032;15.484;2023-04-25T03:09:28;4.43;;;2.00;;
41468;SDS011;27206;47.032;15.484;2023-04-25T03:11:54;4.63;;;1.80;;
41468;SDS011;27206;47.032;15.484;2023-04-25T03:14:19;10.60;;;2.20;;
41468;SDS011;27206;47.032;15.484;2023-04-25T03:16:45;5.45;;;2.20;;
41468;SDS011;27206;47.032;15.484;2023-04-25T03:19:11;10.38;;;2.63;;
41468;SDS011;27206;47.032;15.484;2023-04-25T03:21:36;7.88;;;2.35;;
41468;SDS011;27206;47.032;15.484;2023-04-25T03:24:03;5.18;;;2.00;;
41468;SDS011;27206;47.032;15.484;2023-04-25T03:26:29;5.97;;;2.75;;
41468;SDS011;27206;47.032;15.484;2023-04-25T03:28:55;8.15;;;3.05;;
41468;SDS011;27206;47.032;15.484;2023-04-25T03:31:21;8.25;;;3.10;;
41468;SDS011;27206;47.032;15.484;2023-04-25T03:33:47;5.72;;;2.42;;
41468;SDS011;27206;47.032;15.484;2023-04-25T03:36:13;10.73;;;1.98;;
41468;SDS011;27206;47.032;15.484;2023-04-25T03:38:38;8.40;;;2.10;;
41468;SDS011;27206;47.032;15.484;2023-04-25T03:41:06;3.40;;;2.00;;
41468;SDS011;27206;47.032;15.484;2023-04-25T03:43:32;3.97;;;1.80;;
41468;SDS011;27206;47.032;15.484;2023-04-25T03:45:57;4.57;;;1.88;;
41468;SDS011;27206;47.032;15.484;2023-04-25T03:48:23;3.80;;;1.95;;
41468;SDS011;27206;47.032;15.484;2023-04-25T03:50:50;10.90;;;2.65;;
41468;SDS011;27206;47.032;15.484;2023-04-25T03:53:16;5.88;;;2.42;;
41468;SDS011;27206;47.032;15.484;2023-04-25T03:55:42;6.13;;;3.28;;
41468;SDS011;27206;47.032;15.484;2023-04-25T03:58:08;9.88;;;3.67;;
41468;SDS011;27206;47.032;15.484;2023-04-25T04:00:34;8.50;;;3.53;;
41468;SDS011;27206;47.032;15.484;2023-04-25T04:03:00;6.78;;;2.90;;
41468;SDS011;27206;47.032;15.484;2023-04-25T04:05:25;6.05;;;2.83;;
41468;SDS011;27206;47.032;15.484;2023-04-25T04:07:52;4.55;;;2.53;;
41468;SDS011;27206;47.032;15.484;2023-04-25T04:10:18;4.35;;;2.15;;
41468;SDS011;27206;47.032;15.484;2023-04-25T04:12:43;3.03;;;1.90;;
41468;SDS011;27206;47.032;15.484;2023-04-25T04:15:09;4.53;;;1.92;;
41468;SDS011;27206;47.032;15.484;2023-04-25T04:17:35;5.13;;;2.17;;
41468;SDS011;27206;47.032;15.484;2023-04-25T04:20:01;3.60;;;2.00;;
41468;SDS011;27206;47.032;15.484;2023-04-25T04:22:28;5.60;;;2.20;;
41468;SDS011;27206;47.032;15.484;2023-04-25T04:24:54;3.95;;;1.92;;
41468;SDS011;27206;47.032;15.484;2023-04-25T04:27:21;4.63;;;2.63;;
41468;SDS011;27206;47.032;15.484;2023-04-25T04:29:47;4.97;;;2.50;;
41468;SDS011;27206;47.032;15.484;2023-04-25T04:32:14;11.05;;;2.20;;
41468;SDS011;27206;47.032;15.484;2023-04-25T04:34:40;6.55;;;2.13;;
41468;SDS011;27206;47.032;15.484;2023-04-25T04:37:06;6.47;;;2.03;;
41468;SDS011;27206;47.032;15.484;2023-04-25T04:39:35;4.95;;;1.77;;
41468;SDS011;27206;47.032;15.484;2023-04-25T04:42:02;9.82;;;2.20;;
41468;SDS011;27206;47.032;15.484;2023-04-25T04:44:28;4.70;;;2.10;;
41468;SDS011;27206;47.032;15.484;2023-04-25T04:46:57;3.45;;;1.60;;
41468;SDS011;27206;47.032;15.484;2023-04-25T04:49:23;4.85;;;2.30;;
41468;SDS011;27206;47.032;15.484;2023-04-25T04:51:49;3.95;;;2.05;;
41468;SDS011;27206;47.032;15.484;2023-04-25T04:54:14;5.65;;;2.75;;
41468;SDS011;27206;47.032;15.484;2023-04-25T04:56:40;7.57;;;2.40;;
41468;SDS011;27206;47.032;15.484;2023-04-25T04:59:06;4.75;;;1.90;;
41468;SDS011;27206;47.032;15.484;2023-04-25T05:01:32;8.55;;;2.40;;
41468;SDS011;27206;47.032;15.484;2023-04-25T05:04:00;4.55;;;2.17;;
41468;SDS011;27206;47.032;15.484;2023-04-25T05:06:28;3.95;;;1.98;;
41468;SDS011;27206;47.032;15.484;2023-04-25T05:08:55;3.85;;;1.80;;
41468;SDS011;27206;47.032;15.484;2023-04-25T05:11:21;10.52;;;2.25;;
41468;SDS011;27206;47.032;15.484;2023-04-25T05:13:49;4.38;;;2.30;;
41468;SDS011;27206;47.032;15.484;2023-04-25T05:16:16;4.90;;;2.25;;
41468;SDS011;27206;47.032;15.484;2023-04-25T05:18:41;4.20;;;2.40;;
41468;SDS011;27206;47.032;15.484;2023-04-25T05:21:07;4.50;;;2.47;;
41468;SDS011;27206;47.032;15.484;2023-04-25T05:23:33;5.05;;;2.67;;
41468;SDS011;27206;47.032;15.484;2023-04-25T05:25:58;5.20;;;2.40;;
41468;SDS011;27206;47.032;15.484;2023-04-25T05:28:24;6.65;;;2.70;;
41468;SDS011;27206;47.032;15.484;2023-04-25T05:30:50;5.90;;;2.53;;
41468;SDS011;27206;47.032;15.484;2023-04-25T05:33:16;4.93;;;2.22;;
41468;SDS011;27206;47.032;15.484;2023-04-25T05:35:42;5.10;;;2.85;;
41468;SDS011;27206;47.032;15.484;2023-04-25T05:38:07;5.03;;;2.50;;
41468;SDS011;27206;47.032;15.484;2023-04-25T05:40:33;5.57;;;3.22;;
41468;SDS011;27206;47.032;15.484;2023-04-25T05:42:59;4.85;;;2.50;;
41468;SDS011;27206;47.032;15.484;2023-04-25T05:45:25;4.80;;;2.63;;
41468;SDS011;27206;47.032;15.484;2023-04-25T05:47:50;5.25;;;2.17;;
41468;SDS011;27206;47.032;15.484;2023-04-25T05:50:16;4.70;;;2.40;;
41468;SDS011;27206;47.032;15.484;2023-04-25T05:52:42;4.38;;;2.33;;
41468;SDS011;27206;47.032;15.484;2023-04-25T05:55:08;4.90;;;2.55;;
41468;SDS011;27206;47.032;15.484;2023-04-25T05:57:33;6.07;;;2.83;;
41468;SDS011;27206;47.032;15.484;2023-04-25T06:00:00;5.53;;;3.15;;
41468;SDS011;27206;47.032;15.484;2023-04-25T06:02:25;6.25;;;2.85;;
41468;SDS011;27206;47.032;15.484;2023-04-25T06:04:51;7.55;;;3.63;;
41468;SDS011;27206;47.032;15.484;2023-04-25T06:07:18;6.38;;;3.10;;
41468;SDS011;27206;47.032;15.484;2023-04-25T06:09:44;6.72;;;3.40;;
41468;SDS011;27206;47.032;15.484;2023-04-25T06:12:10;5.80;;;3.17;;
41468;SDS011;27206;47.032;15.484;2023-04-25T06:14:36;7.35;;;3.33;;
41468;SDS011;27206;47.032;15.484;2023-04-25T06:17:02;5.05;;;2.88;;
41468;SDS011;27206;47.032;15.484;2023-04-25T06:19:33;8.10;;;3.38;;
41468;SDS011;27206;47.032;15.484;2023-04-25T06:21:59;4.93;;;2.72;;
41468;SDS011;27206;47.032;15.484;2023-04-25T06:24:25;7.30;;;3.35;;
41468;SDS011;27206;47.032;15.484;2023-04-25T06:26:51;7.43;;;3.28;;
41468;SDS011;27206;47.032;15.484;2023-04-25T06:29:17;9.48;;;3.33;;
41468;SDS011;27206;47.032;15.484;2023-04-25T06:31:43;7.72;;;3.30;;
41468;SDS011;27206;47.032;15.484;2023-04-25T06:34:09;6.47;;;3.60;;
41468;SDS011;27206;47.032;15.484;2023-04-25T06:36:34;6.53;;;3.22;;
41468;SDS011;27206;47.032;15.484;2023-04-25T06:39:00;6.20;;;2.97;;
41468;SDS011;27206;47.032;15.484;2023-04-25T06:41:26;8.50;;;3.50;;
41468;SDS011;27206;47.032;15.484;2023-04-25T06:43:51;6.00;;;3.13;;
41468;SDS011;27206;47.032;15.484;2023-04-25T06:46:17;6.60;;;2.97;;
41468;SDS011;27206;47.032;15.484;2023-04-25T06:48:43;6.57;;;3.38;;
41468;SDS011;27206;47.032;15.484;2023-04-25T06:51:08;6.80;;;3.40;;
41468;SDS011;27206;47.032;15.484;2023-04-25T06:53:34;5.35;;;2.70;;
41468;SDS011;27206;47.032;15.484;2023-04-25T06:56:00;9.10;;;3.35;;
41468;SDS011;27206;47.032;15.484;2023-04-25T06:58:28;4.97;;;2.88;;
41468;SDS011;27206;47.032;15.484;2023-04-25T07:00:53;7.55;;;3.30;;
41468;SDS011;27206;47.032;15.484;2023-04-25T07:03:19;4.60;;;2.67;;
41468;SDS011;27206;47.032;15.484;2023-04-25T07:05:45;6.20;;;2.88;;
41468;SDS011;27206;47.032;15.484;2023-04-25T07:08:11;5.65;;;2.78;;
41468;SDS011;27206;47.032;15.484;2023-04-25T07:10:37;5.30;;;2.50;;
41468;SDS011;27206;47.032;15.484;2023-04-25T07:13:02;4.70;;;2.60;;
41468;SDS011;27206;47.032;15.484;2023-04-25T07:15:28;5.32;;;2.22;;
41468;SDS011;27206;47.032;15.484;2023-04-25T07:17:54;5.18;;;2.53;;
41468;SDS011;27206;47.032;15.484;2023-04-25T07:20:20;4.88;;;2.20;;
41468;SDS011;27206;47.032;15.484;2023-04-25T07:22:46;4.43;;;2.30;;
41468;SDS011;27206;47.032;15.484;2023-04-25T07:25:11;4.80;;;2.00;;
41468;SDS011;27206;47.032;15.484;2023-04-25T07:27:37;3.60;;;2.10;;
41468;SDS011;27206;47.032;15.484;2023-04-25T07:30:03;3.63;;;1.88;;
41468;SDS011;27206;47.032;15.484;2023-04-25T07:32:29;5.20;;;2.17;;
41468;SDS011;27206;47.032;15.484;2023-04-25T07:34:55;4.05;;;2.33;;
41468;SDS011;27206;47.032;15.484;2023-04-25T07:37:20;3.38;;;1.92;;
41468;SDS011;27206;47.032;15.484;2023-04-25T07:39:46;8.10;;;2.00;;
41468;SDS011;27206;47.032;15.484;2023-04-25T07:42:12;6.30;;;2.53;;
41468;SDS011;27206;47.032;15.484;2023-04-25T07:44:38;4.57;;;2.08;;
41468;SDS011;27206;47.032;15.484;2023-04-25T07:47:08;5.25;;;2.38;;
41468;SDS011;27206;47.032;15.484;2023-04-25T07:49:34;4.32;;;2.10;;
41468;SDS011;27206;47.032;15.484;2023-04-25T07:52:01;5.85;;;2.10;;
41468;SDS011;27206;47.032;15.484;2023-04-25T07:54:27;5.32;;;2.00;;
41468;SDS011;27206;47.032;15.484;2023-04-25T07:56:53;4.45;;;1.95;;
41468;SDS011;27206;47.032;15.484;2023-04-25T07:59:19;3.80;;;1.63;;
41468;SDS011;27206;47.032;15.484;2023-04-25T08:01:45;5.75;;;1.70;;
41468;SDS011;27206;47.032;15.484;2023-04-25T08:04:11;3.10;;;1.10;;
41468;SDS011;27206;47.032;15.484;2023-04-25T08:06:36;2.53;;;1.00;;
41468;SDS011;27206;47.032;15.484;2023-04-25T08:09:02;2.53;;;1.20;;
41468;SDS011;27206;47.032;15.484;2023-04-25T08:11:28;1.48;;;0.93;;
41468;SDS011;27206;47.032;15.484;2023-04-25T08:13:54;2.00;;;0.82;;
41468;SDS011;27206;47.032;15.484;2023-04-25T08:16:19;1.42;;;0.70;;
41468;SDS011;27206;47.032;15.484;2023-04-25T08:18:45;2.03;;;0.73;;
41468;SDS011;27206;47.032;15.484;2023-04-25T08:21:11;0.75;;;0.50;;
41468;SDS011;27206;47.032;15.484;2023-04-25T08:23:37;1.13;;;0.50;;
41468;SDS011;27206;47.032;15.484;2023-04-25T08:26:03;1.73;;;0.52;;
41468;SDS011;27206;47.032;15.484;2023-04-25T08:28:29;1.48;;;0.47;;
41468;SDS011;27206;47.032;15.484;2023-04-25T08:30:55;0.50;;;0.30;;
41468;SDS011;27206;47.032;15.484;2023-04-25T08:33:21;1.48;;;0.50;;
41468;SDS011;27206;47.032;15.484;2023-04-25T08:35:47;1.30;;;0.55;;
41468;SDS011;27206;47.032;15.484;2023-04-25T08:38:12;1.08;;;0.50;;
41468;SDS011;27206;47.032;15.484;2023-04-25T08:40:38;0.90;;;0.50;;
41468;SDS011;27206;47.032;15.484;2023-04-25T08:43:06;4.32;;;0.60;;
41468;SDS011;27206;47.032;15.484;2023-04-25T08:45:38;1.63;;;0.60;;
41468;SDS011;27206;47.032;15.484;2023-04-25T08:48:12;1.42;;;0.57;;
41468;SDS011;27206;47.032;15.484;2023-04-25T08:50:46;1.63;;;0.50;;
41468;SDS011;27206;47.032;15.484;2023-04-25T08:53:16;1.17;;;0.55;;
41468;SDS011;27206;47.032;15.484;2023-04-25T08:55:45;0.77;;;0.32;;
41468;SDS011;27206;47.032;15.484;2023-04-25T08:58:12;1.98;;;0.40;;
41468;SDS011;27206;47.032;15.484;2023-04-25T09:00:38;1.48;;;0.52;;
41468;SDS011;27206;47.032;15.484;2023-04-25T09:03:04;1.38;;;0.50;;
41468;SDS011;27206;47.032;15.484;2023-04-25T09:05:30;1.20;;;0.52;;
41468;SDS011;27206;47.032;15.484;2023-04-25T09:07:57;2.13;;;0.63;;
41468;SDS011;27206;47.032;15.484;2023-04-25T09:10:23;0.80;;;0.50;;
41468;SDS011;27206;47.032;15.484;2023-04-25T09:13:02;0.95;;;0.52;;
41468;SDS011;27206;47.032;15.484;2023-04-25T09:15:32;1.33;;;0.52;;
41468;SDS011;27206;47.032;15.484;2023-04-25T09:17:58;1.38;;;0.60;;
41468;SDS011;27206;47.032;15.484;2023-04-25T09:20:25;1.23;;;0.55;;
41468;SDS011;27206;47.032;15.484;2023-04-25T09:23:03;1.13;;;0.40;;
41468;SDS011;27206;47.032;15.484;2023-04-25T09:25:33;1.42;;;0.40;;
41468;SDS011;27206;47.032;15.484;2023-04-25T09:28:03;0.52;;;0.30;;
41468;SDS011;27206;47.032;15.484;2023-04-25T09:30:34;1.60;;;0.60;;
41468;SDS011;27206;47.032;15.484;2023-04-25T09:33:09;1.08;;;0.50;;
41468;SDS011;27206;47.032;15.484;2023-04-25T09:35:39;1.05;;;0.47;;
41468;SDS011;27206;47.032;15.484;2023-04-25T09:38:08;0.85;;;0.50;;
41468;SDS011;27206;47.032;15.484;2023-04-25T09:40:33;1.08;;;0.50;;
41468;SDS011;27206;47.032;15.484;2023-04-25T09:43:06;0.68;;;0.28;;
41468;SDS011;27206;47.032;15.484;2023-04-25T09:45:40;1.75;;;0.50;;
41468;SDS011;27206;47.032;15.484;2023-04-25T09:48:10;0.80;;;0.30;;
41468;SDS011;27206;47.032;15.484;2023-04-25T09:50:51;0.77;;;0.30;;
41468;SDS011;27206;47.032;15.484;2023-04-25T09:53:28;1.33;;;0.50;;
41468;SDS011;27206;47.032;15.484;2023-04-25T09:55:55;0.95;;;0.43;;
41468;SDS011;27206;47.032;15.484;2023-04-25T09:58:21;2.88;;;0.47;;
41468;SDS011;27206;47.032;15.484;2023-04-25T10:00:50;2.85;;;0.70;;
41468;SDS011;27206;47.032;15.484;2023-04-25T10:03:17;1.92;;;0.40;;
41468;SDS011;27206;47.032;15.484;2023-04-25T10:05:45;2.80;;;0.43;;
41468;SDS011;27206;47.032;15.484;2023-04-25T10:08:13;1.77;;;0.50;;
41468;SDS011;27206;47.032;15.484;2023-04-25T10:10:39;0.98;;;0.28;;
41468;SDS011;27206;47.032;15.484;2023-04-25T10:13:06;0.40;;;0.30;;
41468;SDS011;27206;47.032;15.484;2023-04-25T10:15:34;0.77;;;0.40;;
41468;SDS011;27206;47.032;15.484;2023-04-25T10:18:01;1.02;;;0.47;;
41468;SDS011;27206;47.032;15.484;2023-04-25T10:20:27;1.60;;;0.40;;
41468;SDS011;27206;47.032;15.484;2023-04-25T10:22:54;0.50;;;0.30;;
41468;SDS011;27206;47.032;15.484;2023-04-25T10:25:23;1.25;;;0.38;;
41468;SDS011;27206;47.032;15.484;2023-04-25T10:27:52;1.05;;;0.50;;
41468;SDS011;27206;47.032;15.484;2023-04-25T10:30:18;0.80;;;0.38;;
41468;SDS011;27206;47.032;15.484;2023-04-25T10:32:44;1.02;;;0.38;;
41468;SDS011;27206;47.032;15.484;2023-04-25T10:35:13;0.95;;;0.32;;
41468;SDS011;27206;47.032;15.484;2023-04-25T10:37:59;0.60;;;0.38;;
41468;SDS011;27206;47.032;15.484;2023-04-25T10:40:34;1.38;;;0.30;;
41468;SDS011;27206;47.032;15.484;2023-04-25T10:45:56;0.63;;;0.35;;
41468;SDS011;27206;47.032;15.484;2023-04-25T10:48:30;0.90;;;0.40;;
41468;SDS011;27206;47.032;15.484;2023-04-25T10:51:09;1.98;;;0.50;;
41468;SDS011;27206;47.032;15.484;2023-04-25T10:53:35;0.35;;;0.30;;
41468;SDS011;27206;47.032;15.484;2023-04-25T10:56:13;0.90;;;0.40;;
41468;SDS011;27206;47.032;15.484;2023-04-25T10:58:43;1.13;;;0.47;;
41468;SDS011;27206;47.032;15.484;2023-04-25T11:01:09;0.63;;;0.32;;
41468;SDS011;27206;47.032;15.484;2023-04-25T11:03:42;1.25;;;0.50;;
41468;SDS011;27206;47.032;15.484;2023-04-25T11:06:15;0.88;;;0.40;;
41468;SDS011;27206;47.032;15.484;2023-04-25T11:09:02;1.10;;;0.38;;
41468;SDS011;27206;47.032;15.484;2023-04-25T11:11:36;0.88;;;0.40;;
41468;SDS011;27206;47.032;15.484;2023-04-25T11:14:02;0.68;;;0.38;;
41468;SDS011;27206;47.032;15.484;2023-04-25T11:16:27;1.30;;;0.73;;
41468;SDS011;27206;47.032;15.484;2023-04-25T11:18:53;1.85;;;0.70;;
41468;SDS011;27206;47.032;15.484;2023-04-25T11:21:22;2.53;;;1.00;;
41468;SDS011;27206;47.032;15.484;2023-04-25T11:23:47;4.43;;;0.70;;
41468;SDS011;27206;47.032;15.484;2023-04-25T11:26:13;1.23;;;0.60;;
41468;SDS011;27206;47.032;15.484;2023-04-25T11:28:40;0.70;;;0.45;;
41468;SDS011;27206;47.032;15.484;2023-04-25T11:31:05;0.98;;;0.50;;
41468;SDS011;27206;47.032;15.484;2023-04-25T11:33:31;1.77;;;0.70;;
41468;SDS011;27206;47.032;15.484;2023-04-25T11:35:57;0.85;;;0.50;;
41468;SDS011;27206;47.032;15.484;2023-04-25T11:38:24;1.00;;;0.47;;
41468;SDS011;27206;47.032;15.484;2023-04-25T11:40:53;0.43;;;0.43;;
41468;SDS011;27206;47.032;15.484;2023-04-25T11:43:25;1.67;;;0.55;;
41468;SDS011;27206;47.032;15.484;2023-04-25T11:45:51;1.35;;;0.47;;
41468;SDS011;27206;47.032;15.484;2023-04-25T11:48:17;1.55;;;0.60;;
41468;SDS011;27206;47.032;15.484;2023-04-25T11:50:43;1.10;;;0.50;;
41468;SDS011;27206;47.032;15.484;2023-04-25T11:53:10;8.45;;;0.68;;
41468;SDS011;27206;47.032;15.484;2023-04-25T11:55:36;0.88;;;0.50;;
41468;SDS011;27206;47.032;15.484;2023-04-25T11:58:02;2.25;;;0.52;;
41468;SDS011;27206;47.032;15.484;2023-04-25T12:00:29;3.53;;;0.77;;
41468;SDS011;27206;47.032;15.484;2023-04-25T12:02:56;1.13;;;0.35;;
41468;SDS011;27206;47.032;15.484;2023-04-25T12:05:31;1.20;;;0.50;;
41468;SDS011;27206;47.032;15.484;2023-04-25T12:07:58;1.58;;;0.40;;
41468;SDS011;27206;47.032;15.484;2023-04-25T12:10:36;1.00;;;0.47;;
41468;SDS011;27206;47.032;15.484;2023-04-25T12:13:17;1.33;;;0.40;;
41468;SDS011;27206;47.032;15.484;2023-04-25T12:15:44;0.55;;;0.30;;
41468;SDS011;27206;47.032;15.484;2023-04-25T12:18:10;2.40;;;0.50;;
41468;SDS011;27206;47.032;15.484;2023-04-25T12:20:36;0.55;;;0.35;;
41468;SDS011;27206;47.032;15.484;2023-04-25T12:23:05;0.98;;;0.50;;
41468;SDS011;27206;47.032;15.484;2023-04-25T12:28:12;1.95;;;0.38;;
41468;SDS011;27206;47.032;15.484;2023-04-25T12:31:19;0.35;;;0.30;;
41468;SDS011;27206;47.032;15.484;2023-04-25T12:33:40;1.05;;;0.40;;
41468;SDS011;27206;47.032;15.484;2023-04-25T12:36:07;3.58;;;0.90;;
41468;SDS011;27206;47.032;15.484;2023-04-25T12:38:38;2.47;;;0.75;;
41468;SDS011;27206;47.032;15.484;2023-04-25T12:41:05;3.22;;;0.50;;
41468;SDS011;27206;47.032;15.484;2023-04-25T12:43:31;1.52;;;0.30;;
41468;SDS011;27206;47.032;15.484;2023-04-25T12:45:57;1.38;;;0.50;;
41468;SDS011;27206;47.032;15.484;2023-04-25T12:48:23;0.95;;;0.50;;
41468;SDS011;27206;47.032;15.484;2023-04-25T12:50:49;1.00;;;0.50;;
41468;SDS011;27206;47.032;15.484;2023-04-25T12:53:17;0.60;;;0.43;;
41468;SDS011;27206;47.032;15.484;2023-04-25T12:55:43;1.67;;;0.40;;
41468;SDS011;27206;47.032;15.484;2023-04-25T12:58:11;0.80;;;0.43;;
41468;SDS011;27206;47.032;15.484;2023-04-25T13:00:41;0.73;;;0.45;;
41468;SDS011;27206;47.032;15.484;2023-04-25T13:03:07;1.55;;;0.38;;
41468;SDS011;27206;47.032;15.484;2023-04-25T13:05:34;0.60;;;0.30;;
41468;SDS011;27206;47.032;15.484;2023-04-25T13:07:59;1.30;;;0.50;;
41468;SDS011;27206;47.032;15.484;2023-04-25T13:10:25;1.02;;;0.50;;
41468;SDS011;27206;47.032;15.484;2023-04-25T13:12:51;1.67;;;0.40;;
41468;SDS011;27206;47.032;15.484;2023-04-25T13:15:16;2.28;;;0.30;;
41468;SDS011;27206;47.032;15.484;2023-04-25T13:17:42;1.17;;;0.30;;
41468;SDS011;27206;47.032;15.484;2023-04-25T13:20:08;0.88;;;0.40;;
41468;SDS011;27206;47.032;15.484;2023-04-25T13:22:35;0.40;;;0.35;;
41468;SDS011;27206;47.032;15.484;2023-04-25T13:25:03;0.55;;;0.30;;
41468;SDS011;27206;47.032;15.484;2023-04-25T13:27:30;1.83;;;0.30;;
41468;SDS011;27206;47.032;15.484;2023-04-25T13:29:57;0.70;;;0.30;;
41468;SDS011;27206;47.032;15.484;2023-04-25T13:32:23;1.58;;;0.30;;
41468;SDS011;27206;47.032;15.484;2023-04-25T13:34:50;0.20;;;0.20;;
41468;SDS011;27206;47.032;15.484;2023-04-25T13:37:17;0.82;;;0.40;;
41468;SDS011;27206;47.032;15.484;2023-04-25T13:39:43;0.85;;;0.40;;
41468;SDS011;27206;47.032;15.484;2023-04-25T13:42:09;0.90;;;0.35;;
41468;SDS011;27206;47.032;15.484;2023-04-25T13:44:36;2.15;;;0.40;;
41468;SDS011;27206;47.032;15.484;2023-04-25T13:47:01;0.55;;;0.20;;
41468;SDS011;27206;47.032;15.484;2023-04-25T13:49:27;1.27;;;0.50;;
41468;SDS011;27206;47.032;15.484;2023-04-25T13:51:56;0.38;;;0.30;;
41468;SDS011;27206;47.032;15.484;2023-04-25T13:54:25;0.38;;;0.20;;
41468;SDS011;27206;47.032;15.484;2023-04-25T13:56:50;0.50;;;0.28;;
41468;SDS011;27206;47.032;15.484;2023-04-25T13:59:17;0.77;;;0.32;;
41468;SDS011;27206;47.032;15.484;2023-04-25T14:01:43;1.02;;;0.38;;
41468;SDS011;27206;47.032;15.484;2023-04-25T14:04:09;0.68;;;0.30;;
41468;SDS011;27206;47.032;15.484;2023-04-25T14:06:35;0.38;;;0.32;;
41468;SDS011;27206;47.032;15.484;2023-04-25T14:09:01;1.48;;;0.40;;
41468;SDS011;27206;47.032;15.484;2023-04-25T14:11:29;0.40;;;0.30;;
41468;SDS011;27206;47.032;15.484;2023-04-25T14:13:55;1.38;;;0.35;;
41468;SDS011;27206;47.032;15.484;2023-04-25T14:16:21;1.48;;;0.75;;
41468;SDS011;27206;47.032;15.484;2023-04-25T14:18:47;0.70;;;0.30;;
41468;SDS011;27206;47.032;15.484;2023-04-25T14:21:13;0.63;;;0.40;;
41468;SDS011;27206;47.032;15.484;2023-04-25T14:23:39;1.23;;;0.22;;
41468;SDS011;27206;47.032;15.484;2023-04-25T14:26:05;0.52;;;0.30;;
41468;SDS011;27206;47.032;15.484;2023-04-25T14:28:30;0.77;;;0.40;;
41468;SDS011;27206;47.032;15.484;2023-04-25T14:30:56;1.10;;;0.40;;
41468;SDS011;27206;47.032;15.484;2023-04-25T14:33:22;1.38;;;0.40;;
41468;SDS011;27206;47.032;15.484;2023-04-25T14:35:48;1.10;;;0.50;;
41468;SDS011;27206;47.032;15.484;2023-04-25T14:38:14;1.75;;;0.40;;